sensor_id;sensor_type;location;lat;lon;timestamp;temperature;humidity
14122;DHT22;7139;48.114;11.442;2023-04-03T00:00:46;3.50;99.90
14122;DHT22;7139;48.114;11.442;2023-04-03T00:03:15;3.50;99.90
14122;DHT22;7139;48.114;11.442;2023-04-03T00:05:42;3.50;99.90
14122;DHT22;7139;48.114;11.442;2023-04-03T00:08:10;3.60;99.90
14122;DHT22;7139;48.114;11.442;2023-04-03T00:10:38;3.60;99.90
14122;DHT22;7139;48.114;11.442;2023-04-03T00:13:06;3.60;99.90
14122;DHT22;7139;48.114;11.442;2023-04-03T00:15:34;3.60;99.90
14122;DHT22;7139;48.114;11.442;2023-04-03T00:18:01;3.60;99.90
14122;DHT22;7139;48.114;11.442;2023-04-03T00:20:28;3.60;99.90
14122;DHT22;7139;48.114;11.442;2023-04-03T00:22:55;3.60;99.90
14122;DHT22;7139;48.114;11.442;2023-04-03T00:25:23;3.50;99.90
14122;DHT22;7139;48.114;11.442;2023-04-03T00:27:50;3.50;99.90
14122;DHT22;7139;48.114;11.442;2023-04-03T00:30:18;3.50;99.90
14122;DHT22;7139;48.114;11.442;2023-04-03T00:32:47;3.50;99.90
14122;DHT22;7139;48.114;11.442;2023-04-03T00:35:14;3.50;99.90
14122;DHT22;7139;48.114;11.442;2023-04-03T00:37:41;3.50;99.90
14122;DHT22;7139;48.114;11.442;2023-04-03T00:40:09;3.60;99.90
14122;DHT22;7139;48.114;11.442;2023-04-03T00:42:38;3.50;99.90
14122;DHT22;7139;48.114;11.442;2023-04-03T00:45:25;3.40;99.90
14122;DHT22;7139;48.114;11.442;2023-04-03T00:47:52;3.50;99.90
14122;DHT22;7139;48.114;11.442;2023-04-03T00:50:19;3.50;99.90
14122;DHT22;7139;48.114;11.442;2023-04-03T00:52:46;3.50;99.90
14122;DHT22;7139;48.114;11.442;2023-04-03T00:55:15;3.50;99.90
14122;DHT22;7139;48.114;11.442;2023-04-03T00:57:44;3.40;99.90
14122;DHT22;7139;48.114;11.442;2023-04-03T01:00:14;3.40;99.90
14122;DHT22;7139;48.114;11.442;2023-04-03T01:02:42;3.40;99.90
14122;DHT22;7139;48.114;11.442;2023-04-03T01:05:09;3.40;99.90
14122;DHT22;7139;48.114;11.442;2023-04-03T01:07:37;3.40;99.90
14122;DHT22;7139;48.114;11.442;2023-04-03T01:10:06;3.30;99.90
14122;DHT22;7139;48.114;11.442;2023-04-03T01:12:35;3.30;99.90
14122;DHT22;7139;48.114;11.442;2023-04-03T01:15:06;3.20;99.90
14122;DHT22;7139;48.114;11.442;2023-04-03T01:17:36;3.20;99.90
14122;DHT22;7139;48.114;11.442;2023-04-03T01:20:49;3.30;99.90
14122;DHT22;7139;48.114;11.442;2023-04-03T01:23:40;3.30;99.90
14122;DHT22;7139;48.114;11.442;2023-04-03T01:26:10;3.30;99.90
14122;DHT22;7139;48.114;11.442;2023-04-03T01:28:38;3.30;99.90
14122;DHT22;7139;48.114;11.442;2023-04-03T01:31:13;3.30;99.90
14122;DHT22;7139;48.114;11.442;2023-04-03T01:33:43;3.30;99.90
14122;DHT22;7139;48.114;11.442;2023-04-03T01:36:15;3.30;99.90
14122;DHT22;7139;48.114;11.442;2023-04-03T01:38:42;3.40;99.90
14122;DHT22;7139;48.114;11.442;2023-04-03T01:41:09;3.40;99.90
14122;DHT22;7139;48.114;11.442;2023-04-03T01:43:36;3.40;99.90
14122;DHT22;7139;48.114;11.442;2023-04-03T01:46:03;3.40;99.90
14122;DHT22;7139;48.114;11.442;2023-04-03T01:48:30;3.40;99.90
14122;DHT22;7139;48.114;11.442;2023-04-03T01:50:58;3.40;99.90
14122;DHT22;7139;48.114;11.442;2023-04-03T01:53:24;3.40;99.90
14122;DHT22;7139;48.114;11.442;2023-04-03T01:55:51;3.40;99.90
14122;DHT22;7139;48.114;11.442;2023-04-03T01:58:18;3.30;99.90
14122;DHT22;7139;48.114;11.442;2023-04-03T02:00:45;3.30;99.90
14122;DHT22;7139;48.114;11.442;2023-04-03T02:03:12;3.40;99.90
14122;DHT22;7139;48.114;11.442;2023-04-03T02:05:39;3.40;99.90
14122;DHT22;7139;48.114;11.442;2023-04-03T02:08:07;3.40;99.90
14122;DHT22;7139;48.114;11.442;2023-04-03T02:10:34;3.40;99.90
14122;DHT22;7139;48.114;11.442;2023-04-03T02:13:01;3.40;99.90
14122;DHT22;7139;48.114;11.442;2023-04-03T02:15:27;3.40;99.90
14122;DHT22;7139;48.114;11.442;2023-04-03T02:17:54;3.50;99.90
14122;DHT22;7139;48.114;11.442;2023-04-03T02:20:21;3.50;99.90
14122;DHT22;7139;48.114;11.442;2023-04-03T02:22:48;3.40;99.90
14122;DHT22;7139;48.114;11.442;2023-04-03T02:25:16;3.40;99.90
14122;DHT22;7139;48.114;11.442;2023-04-03T02:27:44;3.40;99.90
14122;DHT22;7139;48.114;11.442;2023-04-03T02:30:11;3.40;99.90
14122;DHT22;7139;48.114;11.442;2023-04-03T02:32:40;3.50;99.90
14122;DHT22;7139;48.114;11.442;2023-04-03T02:35:08;3.50;99.90
14122;DHT22;7139;48.114;11.442;2023-04-03T02:37:34;3.50;99.90
14122;DHT22;7139;48.114;11.442;2023-04-03T02:40:02;3.50;99.90
14122;DHT22;7139;48.114;11.442;2023-04-03T02:42:30;3.40;99.90
14122;DHT22;7139;48.114;11.442;2023-04-03T02:44:57;3.40;99.90
14122;DHT22;7139;48.114;11.442;2023-04-03T02:47:25;3.30;99.90
14122;DHT22;7139;48.114;11.442;2023-04-03T02:49:52;3.40;99.90
14122;DHT22;7139;48.114;11.442;2023-04-03T02:52:19;3.40;99.90
14122;DHT22;7139;48.114;11.442;2023-04-03T02:54:46;3.40;99.90
14122;DHT22;7139;48.114;11.442;2023-04-03T02:57:13;3.30;99.90
14122;DHT22;7139;48.114;11.442;2023-04-03T02:59:42;3.40;99.90
14122;DHT22;7139;48.114;11.442;2023-04-03T03:02:09;3.50;99.90
14122;DHT22;7139;48.114;11.442;2023-04-03T03:04:36;3.50;99.90
14122;DHT22;7139;48.114;11.442;2023-04-03T03:07:03;3.40;99.90
14122;DHT22;7139;48.114;11.442;2023-04-03T03:09:30;3.40;99.90
14122;DHT22;7139;48.114;11.442;2023-04-03T03:11:57;3.50;99.90
14122;DHT22;7139;48.114;11.442;2023-04-03T03:14:24;3.50;99.90
14122;DHT22;7139;48.114;11.442;2023-04-03T03:16:52;3.50;99.90
14122;DHT22;7139;48.114;11.442;2023-04-03T03:19:18;3.50;99.90
14122;DHT22;7139;48.114;11.442;2023-04-03T03:21:45;3.50;99.90
14122;DHT22;7139;48.114;11.442;2023-04-03T03:24:12;3.50;99.90
14122;DHT22;7139;48.114;11.442;2023-04-03T03:26:39;3.60;99.90
14122;DHT22;7139;48.114;11.442;2023-04-03T03:29:05;3.60;99.90
14122;DHT22;7139;48.114;11.442;2023-04-03T03:31:32;3.60;99.90
14122;DHT22;7139;48.114;11.442;2023-04-03T03:34:00;3.60;99.90
14122;DHT22;7139;48.114;11.442;2023-04-03T03:36:27;3.60;99.90
14122;DHT22;7139;48.114;11.442;2023-04-03T03:38:54;3.60;99.90
14122;DHT22;7139;48.114;11.442;2023-04-03T03:41:20;3.50;99.90
14122;DHT22;7139;48.114;11.442;2023-04-03T03:43:47;3.50;99.90
14122;DHT22;7139;48.114;11.442;2023-04-03T03:46:14;3.50;99.90
14122;DHT22;7139;48.114;11.442;2023-04-03T03:48:41;3.50;99.90
14122;DHT22;7139;48.114;11.442;2023-04-03T03:51:09;3.50;99.90
14122;DHT22;7139;48.114;11.442;2023-04-03T03:53:35;3.50;99.90
14122;DHT22;7139;48.114;11.442;2023-04-03T03:56:03;3.50;99.90
14122;DHT22;7139;48.114;11.442;2023-04-03T03:58:30;3.60;99.90
14122;DHT22;7139;48.114;11.442;2023-04-03T04:01:00;3.60;99.90
14122;DHT22;7139;48.114;11.442;2023-04-03T04:03:27;3.60;99.90
14122;DHT22;7139;48.114;11.442;2023-04-03T04:05:53;3.60;99.90
14122;DHT22;7139;48.114;11.442;2023-04-03T04:08:22;3.50;99.90
14122;DHT22;7139;48.114;11.442;2023-04-03T04:10:49;3.60;99.90
14122;DHT22;7139;48.114;11.442;2023-04-03T04:13:15;3.60;99.90
14122;DHT22;7139;48.114;11.442;2023-04-03T04:15:42;3.60;99.90
14122;DHT22;7139;48.114;11.442;2023-04-03T04:18:09;3.60;99.90
14122;DHT22;7139;48.114;11.442;2023-04-03T04:20:36;3.60;99.90
14122;DHT22;7139;48.114;11.442;2023-04-03T04:23:03;3.60;99.90
14122;DHT22;7139;48.114;11.442;2023-04-03T04:25:31;3.60;99.90
14122;DHT22;7139;48.114;11.442;2023-04-03T04:27:58;3.60;99.90
14122;DHT22;7139;48.114;11.442;2023-04-03T04:30:25;3.60;99.90
14122;DHT22;7139;48.114;11.442;2023-04-03T04:32:52;3.60;99.90
14122;DHT22;7139;48.114;11.442;2023-04-03T04:35:19;3.70;99.90
14122;DHT22;7139;48.114;11.442;2023-04-03T04:37:46;3.60;99.90
14122;DHT22;7139;48.114;11.442;2023-04-03T04:40:13;3.70;99.90
14122;DHT22;7139;48.114;11.442;2023-04-03T04:42:41;3.50;99.90
14122;DHT22;7139;48.114;11.442;2023-04-03T04:45:08;3.60;99.90
14122;DHT22;7139;48.114;11.442;2023-04-03T04:47:35;3.60;99.90
14122;DHT22;7139;48.114;11.442;2023-04-03T04:50:02;3.60;99.90
14122;DHT22;7139;48.114;11.442;2023-04-03T04:52:29;3.60;99.90
14122;DHT22;7139;48.114;11.442;2023-04-03T04:54:56;3.60;99.90
14122;DHT22;7139;48.114;11.442;2023-04-03T04:57:23;3.60;99.90
14122;DHT22;7139;48.114;11.442;2023-04-03T04:59:51;3.50;99.90
14122;DHT22;7139;48.114;11.442;2023-04-03T05:02:18;3.50;99.90
14122;DHT22;7139;48.114;11.442;2023-04-03T05:04:45;3.40;99.90
14122;DHT22;7139;48.114;11.442;2023-04-03T05:07:11;3.40;99.90
14122;DHT22;7139;48.114;11.442;2023-04-03T05:09:38;3.50;99.90
14122;DHT22;7139;48.114;11.442;2023-04-03T05:12:07;3.50;99.90
14122;DHT22;7139;48.114;11.442;2023-04-03T05:14:34;3.50;99.90
14122;DHT22;7139;48.114;11.442;2023-04-03T05:17:02;3.50;99.90
14122;DHT22;7139;48.114;11.442;2023-04-03T05:19:29;3.40;99.90
14122;DHT22;7139;48.114;11.442;2023-04-03T05:21:55;3.40;99.90
14122;DHT22;7139;48.114;11.442;2023-04-03T05:24:22;3.50;99.90
14122;DHT22;7139;48.114;11.442;2023-04-03T05:26:49;3.50;99.90
14122;DHT22;7139;48.114;11.442;2023-04-03T05:29:16;3.50;99.90
14122;DHT22;7139;48.114;11.442;2023-04-03T05:31:42;3.60;99.90
14122;DHT22;7139;48.114;11.442;2023-04-03T05:34:10;3.60;99.90
14122;DHT22;7139;48.114;11.442;2023-04-03T05:36:37;3.60;99.90
14122;DHT22;7139;48.114;11.442;2023-04-03T05:39:04;3.60;99.90
14122;DHT22;7139;48.114;11.442;2023-04-03T05:41:31;3.50;99.90
14122;DHT22;7139;48.114;11.442;2023-04-03T05:43:57;3.50;99.90
14122;DHT22;7139;48.114;11.442;2023-04-03T05:46:24;3.50;99.90
14122;DHT22;7139;48.114;11.442;2023-04-03T05:48:51;3.50;99.90
14122;DHT22;7139;48.114;11.442;2023-04-03T05:51:22;3.50;99.90
14122;DHT22;7139;48.114;11.442;2023-04-03T05:53:53;3.50;99.90
14122;DHT22;7139;48.114;11.442;2023-04-03T05:56:22;3.50;99.90
14122;DHT22;7139;48.114;11.442;2023-04-03T05:58:48;3.60;99.90
14122;DHT22;7139;48.114;11.442;2023-04-03T06:01:15;3.60;99.90
14122;DHT22;7139;48.114;11.442;2023-04-03T06:03:42;3.50;99.90
14122;DHT22;7139;48.114;11.442;2023-04-03T06:06:12;3.60;99.90
14122;DHT22;7139;48.114;11.442;2023-04-03T06:08:41;3.60;99.90
14122;DHT22;7139;48.114;11.442;2023-04-03T06:11:09;3.70;99.90
14122;DHT22;7139;48.114;11.442;2023-04-03T06:13:35;3.80;99.90
14122;DHT22;7139;48.114;11.442;2023-04-03T06:16:02;3.80;99.90
14122;DHT22;7139;48.114;11.442;2023-04-03T06:18:29;3.80;99.90
14122;DHT22;7139;48.114;11.442;2023-04-03T06:20:56;3.80;99.90
14122;DHT22;7139;48.114;11.442;2023-04-03T06:23:24;3.80;99.90
14122;DHT22;7139;48.114;11.442;2023-04-03T06:25:52;3.80;99.90
14122;DHT22;7139;48.114;11.442;2023-04-03T06:28:20;3.80;99.90
14122;DHT22;7139;48.114;11.442;2023-04-03T06:30:47;3.90;99.90
14122;DHT22;7139;48.114;11.442;2023-04-03T06:33:14;3.80;99.90
14122;DHT22;7139;48.114;11.442;2023-04-03T06:35:41;3.90;99.90
14122;DHT22;7139;48.114;11.442;2023-04-03T06:38:07;3.80;99.90
14122;DHT22;7139;48.114;11.442;2023-04-03T06:40:35;3.90;99.90
14122;DHT22;7139;48.114;11.442;2023-04-03T06:43:03;4.00;99.90
14122;DHT22;7139;48.114;11.442;2023-04-03T06:45:30;4.00;99.90
14122;DHT22;7139;48.114;11.442;2023-04-03T06:47:57;3.90;99.90
14122;DHT22;7139;48.114;11.442;2023-04-03T06:50:24;3.90;99.90
14122;DHT22;7139;48.114;11.442;2023-04-03T06:52:51;3.90;99.90
14122;DHT22;7139;48.114;11.442;2023-04-03T06:55:18;3.80;99.90
14122;DHT22;7139;48.114;11.442;2023-04-03T06:57:45;3.90;99.90
14122;DHT22;7139;48.114;11.442;2023-04-03T07:00:14;4.00;99.90
14122;DHT22;7139;48.114;11.442;2023-04-03T07:02:41;4.00;99.90
14122;DHT22;7139;48.114;11.442;2023-04-03T07:05:09;4.00;99.90
14122;DHT22;7139;48.114;11.442;2023-04-03T07:07:35;4.10;99.90
14122;DHT22;7139;48.114;11.442;2023-04-03T07:10:04;4.10;99.90
14122;DHT22;7139;48.114;11.442;2023-04-03T07:12:30;4.10;99.90
14122;DHT22;7139;48.114;11.442;2023-04-03T07:14:57;4.20;99.90
14122;DHT22;7139;48.114;11.442;2023-04-03T07:17:25;4.20;99.90
14122;DHT22;7139;48.114;11.442;2023-04-03T07:19:52;4.20;99.90
14122;DHT22;7139;48.114;11.442;2023-04-03T07:22:19;4.20;99.90
14122;DHT22;7139;48.114;11.442;2023-04-03T07:24:46;4.10;99.90
14122;DHT22;7139;48.114;11.442;2023-04-03T07:27:12;4.20;99.90
14122;DHT22;7139;48.114;11.442;2023-04-03T07:29:39;4.20;99.90
14122;DHT22;7139;48.114;11.442;2023-04-03T07:32:06;4.20;99.90
14122;DHT22;7139;48.114;11.442;2023-04-03T07:34:34;4.20;99.90
14122;DHT22;7139;48.114;11.442;2023-04-03T07:37:01;4.30;99.90
14122;DHT22;7139;48.114;11.442;2023-04-03T07:39:28;4.40;99.90
14122;DHT22;7139;48.114;11.442;2023-04-03T07:41:55;4.50;99.90
14122;DHT22;7139;48.114;11.442;2023-04-03T07:44:21;4.50;99.90
14122;DHT22;7139;48.114;11.442;2023-04-03T07:46:48;4.50;99.90
14122;DHT22;7139;48.114;11.442;2023-04-03T07:49:16;4.50;99.90
14122;DHT22;7139;48.114;11.442;2023-04-03T07:51:44;4.50;99.90
14122;DHT22;7139;48.114;11.442;2023-04-03T07:54:12;4.50;99.90
14122;DHT22;7139;48.114;11.442;2023-04-03T07:56:38;4.50;99.90
14122;DHT22;7139;48.114;11.442;2023-04-03T07:59:05;4.60;99.90
14122;DHT22;7139;48.114;11.442;2023-04-03T08:01:32;4.60;99.90
14122;DHT22;7139;48.114;11.442;2023-04-03T08:03:59;4.70;99.90
14122;DHT22;7139;48.114;11.442;2023-04-03T08:06:26;4.70;99.90
14122;DHT22;7139;48.114;11.442;2023-04-03T08:08:56;4.70;99.90
14122;DHT22;7139;48.114;11.442;2023-04-03T08:11:22;4.70;99.90
14122;DHT22;7139;48.114;11.442;2023-04-03T08:13:51;4.60;99.90
14122;DHT22;7139;48.114;11.442;2023-04-03T08:16:20;4.60;99.90
14122;DHT22;7139;48.114;11.442;2023-04-03T08:18:48;4.60;99.90
14122;DHT22;7139;48.114;11.442;2023-04-03T08:21:15;4.60;99.90
14122;DHT22;7139;48.114;11.442;2023-04-03T08:23:42;4.60;99.90
14122;DHT22;7139;48.114;11.442;2023-04-03T08:26:11;4.70;99.90
14122;DHT22;7139;48.114;11.442;2023-04-03T08:28:39;4.50;99.90
14122;DHT22;7139;48.114;11.442;2023-04-03T08:31:07;4.50;99.90
14122;DHT22;7139;48.114;11.442;2023-04-03T08:33:36;4.50;99.90
14122;DHT22;7139;48.114;11.442;2023-04-03T08:36:04;4.50;99.90
14122;DHT22;7139;48.114;11.442;2023-04-03T08:38:32;4.40;99.90
14122;DHT22;7139;48.114;11.442;2023-04-03T08:41:05;4.50;99.90
14122;DHT22;7139;48.114;11.442;2023-04-03T08:43:47;4.50;99.90
14122;DHT22;7139;48.114;11.442;2023-04-03T08:46:19;4.50;99.90
14122;DHT22;7139;48.114;11.442;2023-04-03T08:48:49;4.60;99.90
14122;DHT22;7139;48.114;11.442;2023-04-03T08:51:19;4.70;99.90
14122;DHT22;7139;48.114;11.442;2023-04-03T08:53:54;4.70;99.90
14122;DHT22;7139;48.114;11.442;2023-04-03T08:56:22;4.70;99.90
14122;DHT22;7139;48.114;11.442;2023-04-03T08:58:56;4.70;99.90
14122;DHT22;7139;48.114;11.442;2023-04-03T09:01:27;4.70;99.90
14122;DHT22;7139;48.114;11.442;2023-04-03T09:03:54;4.70;99.90
14122;DHT22;7139;48.114;11.442;2023-04-03T09:06:23;4.70;99.90
14122;DHT22;7139;48.114;11.442;2023-04-03T09:09:06;4.60;99.90
14122;DHT22;7139;48.114;11.442;2023-04-03T09:11:44;4.70;99.90
14122;DHT22;7139;48.114;11.442;2023-04-03T09:14:19;4.70;99.90
14122;DHT22;7139;48.114;11.442;2023-04-03T09:16:52;4.80;99.90
14122;DHT22;7139;48.114;11.442;2023-04-03T09:19:34;4.80;99.90
14122;DHT22;7139;48.114;11.442;2023-04-03T09:22:13;4.90;99.90
14122;DHT22;7139;48.114;11.442;2023-04-03T09:24:44;5.00;99.90
14122;DHT22;7139;48.114;11.442;2023-04-03T09:27:12;4.90;99.90
14122;DHT22;7139;48.114;11.442;2023-04-03T09:29:42;4.90;99.90
14122;DHT22;7139;48.114;11.442;2023-04-03T09:32:21;5.00;99.90
14122;DHT22;7139;48.114;11.442;2023-04-03T09:34:49;5.10;99.90
14122;DHT22;7139;48.114;11.442;2023-04-03T09:37:38;5.20;99.90
14122;DHT22;7139;48.114;11.442;2023-04-03T09:40:11;5.30;99.90
14122;DHT22;7139;48.114;11.442;2023-04-03T09:42:56;5.20;99.90
14122;DHT22;7139;48.114;11.442;2023-04-03T09:45:27;5.40;99.90
14122;DHT22;7139;48.114;11.442;2023-04-03T09:48:08;5.60;99.90
14122;DHT22;7139;48.114;11.442;2023-04-03T09:50:36;5.70;99.90
14122;DHT22;7139;48.114;11.442;2023-04-03T09:53:07;5.70;99.90
14122;DHT22;7139;48.114;11.442;2023-04-03T09:55:51;5.80;99.90
14122;DHT22;7139;48.114;11.442;2023-04-03T09:58:25;5.70;99.90
14122;DHT22;7139;48.114;11.442;2023-04-03T10:00:58;5.80;99.90
14122;DHT22;7139;48.114;11.442;2023-04-03T10:03:29;5.80;99.90
14122;DHT22;7139;48.114;11.442;2023-04-03T10:05:56;5.90;99.90
14122;DHT22;7139;48.114;11.442;2023-04-03T10:08:28;5.80;99.90
14122;DHT22;7139;48.114;11.442;2023-04-03T10:11:22;5.80;99.90
14122;DHT22;7139;48.114;11.442;2023-04-03T10:13:53;5.70;99.90
14122;DHT22;7139;48.114;11.442;2023-04-03T10:16:28;5.40;99.90
14122;DHT22;7139;48.114;11.442;2023-04-03T10:19:10;5.20;99.90
14122;DHT22;7139;48.114;11.442;2023-04-03T10:21:44;5.20;99.90
14122;DHT22;7139;48.114;11.442;2023-04-03T10:24:17;5.10;99.90
14122;DHT22;7139;48.114;11.442;2023-04-03T10:26:52;5.10;99.90
14122;DHT22;7139;48.114;11.442;2023-04-03T10:29:34;5.10;99.90
14122;DHT22;7139;48.114;11.442;2023-04-03T10:32:15;5.10;99.90
14122;DHT22;7139;48.114;11.442;2023-04-03T10:34:45;5.20;99.90
14122;DHT22;7139;48.114;11.442;2023-04-03T10:37:18;5.00;99.90
14122;DHT22;7139;48.114;11.442;2023-04-03T10:39:53;4.90;99.90
14122;DHT22;7139;48.114;11.442;2023-04-03T10:42:27;4.90;99.90
14122;DHT22;7139;48.114;11.442;2023-04-03T10:45:14;4.90;99.90
14122;DHT22;7139;48.114;11.442;2023-04-03T10:47:51;4.80;99.90
14122;DHT22;7139;48.114;11.442;2023-04-03T10:50:35;4.80;99.90
14122;DHT22;7139;48.114;11.442;2023-04-03T10:53:10;4.70;99.90
14122;DHT22;7139;48.114;11.442;2023-04-03T10:55:45;4.70;99.90
14122;DHT22;7139;48.114;11.442;2023-04-03T10:58:20;4.80;99.90
14122;DHT22;7139;48.114;11.442;2023-04-03T11:00:49;4.90;99.90
14122;DHT22;7139;48.114;11.442;2023-04-03T11:03:27;4.90;99.90
14122;DHT22;7139;48.114;11.442;2023-04-03T11:05:59;5.00;99.90
14122;DHT22;7139;48.114;11.442;2023-04-03T11:08:31;4.90;99.90
14122;DHT22;7139;48.114;11.442;2023-04-03T11:11:04;4.80;99.90
14122;DHT22;7139;48.114;11.442;2023-04-03T11:13:34;4.70;99.90
14122;DHT22;7139;48.114;11.442;2023-04-03T11:16:03;4.80;99.90
14122;DHT22;7139;48.114;11.442;2023-04-03T11:18:37;4.70;99.90
14122;DHT22;7139;48.114;11.442;2023-04-03T11:21:09;4.70;99.90
14122;DHT22;7139;48.114;11.442;2023-04-03T11:23:39;4.70;99.90
14122;DHT22;7139;48.114;11.442;2023-04-03T11:26:11;4.80;99.90
14122;DHT22;7139;48.114;11.442;2023-04-03T11:28:39;4.80;99.90
14122;DHT22;7139;48.114;11.442;2023-04-03T11:31:15;4.80;99.90
14122;DHT22;7139;48.114;11.442;2023-04-03T11:33:51;4.70;99.90
14122;DHT22;7139;48.114;11.442;2023-04-03T11:36:22;4.70;99.90
14122;DHT22;7139;48.114;11.442;2023-04-03T11:38:52;4.80;99.90
14122;DHT22;7139;48.114;11.442;2023-04-03T11:41:26;4.80;99.90
14122;DHT22;7139;48.114;11.442;2023-04-03T11:43:59;4.80;99.90
14122;DHT22;7139;48.114;11.442;2023-04-03T11:46:52;4.90;99.90
14122;DHT22;7139;48.114;11.442;2023-04-03T11:49:56;4.90;99.90
14122;DHT22;7139;48.114;11.442;2023-04-03T11:55:54;5.00;99.90
14122;DHT22;7139;48.114;11.442;2023-04-03T11:58:22;5.10;99.90
14122;DHT22;7139;48.114;11.442;2023-04-03T12:00:55;5.20;99.70
14122;DHT22;7139;48.114;11.442;2023-04-03T12:10:13;5.60;99.70
14122;DHT22;7139;48.114;11.442;2023-04-03T12:12:41;5.70;99.20
14122;DHT22;7139;48.114;11.442;2023-04-03T12:15:38;5.80;98.50
14122;DHT22;7139;48.114;11.442;2023-04-03T12:21:16;6.00;98.50
14122;DHT22;7139;48.114;11.442;2023-04-03T12:24:23;6.10;98.40
14122;DHT22;7139;48.114;11.442;2023-04-03T12:27:02;6.10;97.80
14122;DHT22;7139;48.114;11.442;2023-04-03T12:29:34;6.10;98.20
14122;DHT22;7139;48.114;11.442;2023-04-03T12:32:11;6.20;96.50
14122;DHT22;7139;48.114;11.442;2023-04-03T12:34:55;6.20;95.80
14122;DHT22;7139;48.114;11.442;2023-04-03T12:37:44;6.40;95.60
14122;DHT22;7139;48.114;11.442;2023-04-03T12:40:24;6.50;95.00
14122;DHT22;7139;48.114;11.442;2023-04-03T12:45:59;6.50;94.50
14122;DHT22;7139;48.114;11.442;2023-04-03T12:48:31;6.50;93.60
14122;DHT22;7139;48.114;11.442;2023-04-03T12:50:59;6.50;93.80
14122;DHT22;7139;48.114;11.442;2023-04-03T12:53:27;6.50;93.70
14122;DHT22;7139;48.114;11.442;2023-04-03T12:56:18;6.40;92.80
14122;DHT22;7139;48.114;11.442;2023-04-03T12:58:46;6.30;93.10
14122;DHT22;7139;48.114;11.442;2023-04-03T13:01:16;6.40;92.40
14122;DHT22;7139;48.114;11.442;2023-04-03T13:03:47;6.40;93.40
14122;DHT22;7139;48.114;11.442;2023-04-03T13:06:17;6.30;92.40
14122;DHT22;7139;48.114;11.442;2023-04-03T13:08:52;6.40;92.40
14122;DHT22;7139;48.114;11.442;2023-04-03T13:11:20;6.60;92.00
14122;DHT22;7139;48.114;11.442;2023-04-03T13:13:55;6.70;92.20
14122;DHT22;7139;48.114;11.442;2023-04-03T13:16:24;6.90;92.50
14122;DHT22;7139;48.114;11.442;2023-04-03T13:18:52;7.00;91.00
14122;DHT22;7139;48.114;11.442;2023-04-03T13:21:20;7.10;92.40
14122;DHT22;7139;48.114;11.442;2023-04-03T13:23:51;7.20;92.60
14122;DHT22;7139;48.114;11.442;2023-04-03T13:26:20;7.30;91.80
14122;DHT22;7139;48.114;11.442;2023-04-03T13:28:48;7.40;91.70
14122;DHT22;7139;48.114;11.442;2023-04-03T13:31:20;7.40;91.40
14122;DHT22;7139;48.114;11.442;2023-04-03T13:33:57;7.40;91.40
14122;DHT22;7139;48.114;11.442;2023-04-03T13:36:27;7.40;90.30
14122;DHT22;7139;48.114;11.442;2023-04-03T13:39:00;7.40;90.90
14122;DHT22;7139;48.114;11.442;2023-04-03T13:41:30;7.40;90.30
14122;DHT22;7139;48.114;11.442;2023-04-03T13:44:17;7.10;91.10
14122;DHT22;7139;48.114;11.442;2023-04-03T13:46:44;6.90;90.00
14122;DHT22;7139;48.114;11.442;2023-04-03T13:49:21;6.90;90.50
14122;DHT22;7139;48.114;11.442;2023-04-03T13:51:48;6.60;90.80
14122;DHT22;7139;48.114;11.442;2023-04-03T13:54:20;6.50;90.80
14122;DHT22;7139;48.114;11.442;2023-04-03T13:56:53;6.40;90.70
14122;DHT22;7139;48.114;11.442;2023-04-03T13:59:23;6.20;90.90
14122;DHT22;7139;48.114;11.442;2023-04-03T14:01:53;6.10;91.70
14122;DHT22;7139;48.114;11.442;2023-04-03T14:04:23;6.00;92.00
14122;DHT22;7139;48.114;11.442;2023-04-03T14:06:51;5.80;91.90
14122;DHT22;7139;48.114;11.442;2023-04-03T14:09:19;5.80;92.20
14122;DHT22;7139;48.114;11.442;2023-04-03T14:11:47;5.90;92.30
14122;DHT22;7139;48.114;11.442;2023-04-03T14:14:15;5.90;92.20
14122;DHT22;7139;48.114;11.442;2023-04-03T14:16:46;5.90;92.60
14122;DHT22;7139;48.114;11.442;2023-04-03T14:19:22;5.90;92.10
14122;DHT22;7139;48.114;11.442;2023-04-03T14:21:49;5.90;91.90
14122;DHT22;7139;48.114;11.442;2023-04-03T14:24:18;6.00;92.00
14122;DHT22;7139;48.114;11.442;2023-04-03T14:26:45;6.00;91.50
14122;DHT22;7139;48.114;11.442;2023-04-03T14:29:13;6.10;91.30
14122;DHT22;7139;48.114;11.442;2023-04-03T14:31:41;6.20;91.00
14122;DHT22;7139;48.114;11.442;2023-04-03T14:34:10;6.20;91.40
14122;DHT22;7139;48.114;11.442;2023-04-03T14:36:39;6.20;91.10
14122;DHT22;7139;48.114;11.442;2023-04-03T14:39:08;6.20;91.00
14122;DHT22;7139;48.114;11.442;2023-04-03T14:41:37;6.30;91.20
14122;DHT22;7139;48.114;11.442;2023-04-03T14:44:03;6.40;91.30
14122;DHT22;7139;48.114;11.442;2023-04-03T14:46:32;6.50;91.30
14122;DHT22;7139;48.114;11.442;2023-04-03T14:48:59;6.40;90.20
14122;DHT22;7139;48.114;11.442;2023-04-03T14:51:27;6.30;90.10
14122;DHT22;7139;48.114;11.442;2023-04-03T14:53:55;6.30;90.40
14122;DHT22;7139;48.114;11.442;2023-04-03T14:56:24;6.50;90.00
14122;DHT22;7139;48.114;11.442;2023-04-03T14:58:55;6.60;90.20
14122;DHT22;7139;48.114;11.442;2023-04-03T15:01:22;6.70;89.40
14122;DHT22;7139;48.114;11.442;2023-04-03T15:03:49;6.70;89.30
14122;DHT22;7139;48.114;11.442;2023-04-03T15:06:16;6.80;89.40
14122;DHT22;7139;48.114;11.442;2023-04-03T15:08:44;6.90;89.20
14122;DHT22;7139;48.114;11.442;2023-04-03T15:11:14;7.00;86.00
14122;DHT22;7139;48.114;11.442;2023-04-03T15:13:41;7.00;87.60
14122;DHT22;7139;48.114;11.442;2023-04-03T15:16:14;7.20;85.80
14122;DHT22;7139;48.114;11.442;2023-04-03T15:18:41;7.30;85.40
14122;DHT22;7139;48.114;11.442;2023-04-03T15:21:09;7.10;84.30
14122;DHT22;7139;48.114;11.442;2023-04-03T15:23:35;6.90;82.40
14122;DHT22;7139;48.114;11.442;2023-04-03T15:26:03;6.90;83.90
14122;DHT22;7139;48.114;11.442;2023-04-03T15:28:33;6.80;84.20
14122;DHT22;7139;48.114;11.442;2023-04-03T15:31:00;6.60;84.50
14122;DHT22;7139;48.114;11.442;2023-04-03T15:33:28;6.60;83.00
14122;DHT22;7139;48.114;11.442;2023-04-03T15:35:54;6.50;83.90
14122;DHT22;7139;48.114;11.442;2023-04-03T15:38:21;6.40;83.00
14122;DHT22;7139;48.114;11.442;2023-04-03T15:40:48;6.30;83.80
14122;DHT22;7139;48.114;11.442;2023-04-03T15:45:43;6.30;82.90
14122;DHT22;7139;48.114;11.442;2023-04-03T15:48:11;6.30;84.40
14122;DHT22;7139;48.114;11.442;2023-04-03T15:50:38;6.30;83.80
14122;DHT22;7139;48.114;11.442;2023-04-03T15:53:05;6.20;83.60
14122;DHT22;7139;48.114;11.442;2023-04-03T15:55:33;6.30;84.00
14122;DHT22;7139;48.114;11.442;2023-04-03T15:58:00;6.40;82.70
14122;DHT22;7139;48.114;11.442;2023-04-03T16:00:28;6.30;81.90
14122;DHT22;7139;48.114;11.442;2023-04-03T16:02:59;6.40;81.10
14122;DHT22;7139;48.114;11.442;2023-04-03T16:05:26;6.50;81.20
14122;DHT22;7139;48.114;11.442;2023-04-03T16:07:53;6.50;82.60
14122;DHT22;7139;48.114;11.442;2023-04-03T16:10:20;6.50;85.00
14122;DHT22;7139;48.114;11.442;2023-04-03T16:12:47;6.70;87.70
14122;DHT22;7139;48.114;11.442;2023-04-03T16:15:14;6.80;86.60
14122;DHT22;7139;48.114;11.442;2023-04-03T16:17:41;6.80;80.60
14122;DHT22;7139;48.114;11.442;2023-04-03T16:20:11;6.70;79.90